sensor_id;sensor_type;location;lat;lon;timestamp;temperature;humidity
10443;DHT22;5269;51.146;16.986;2023-06-04T00:02:15;9.50;1.00
10443;DHT22;5269;51.146;16.986;2023-06-04T00:04:43;9.50;1.00
10443;DHT22;5269;51.146;16.986;2023-06-04T00:07:11;9.40;1.00
10443;DHT22;5269;51.146;16.986;2023-06-04T00:09:38;9.40;1.00
10443;DHT22;5269;51.146;16.986;2023-06-04T00:12:06;9.50;1.00
10443;DHT22;5269;51.146;16.986;2023-06-04T00:14:33;9.50;1.00
10443;DHT22;5269;51.146;16.986;2023-06-04T00:17:00;9.50;1.00
10443;DHT22;5269;51.146;16.986;2023-06-04T00:19:27;9.50;1.00
10443;DHT22;5269;51.146;16.986;2023-06-04T00:21:54;9.50;1.00
10443;DHT22;5269;51.146;16.986;2023-06-04T00:24:23;9.40;1.00
10443;DHT22;5269;51.146;16.986;2023-06-04T00:26:51;9.40;4.40
10443;DHT22;5269;51.146;16.986;2023-06-04T00:29:18;9.30;1.00
10443;DHT22;5269;51.146;16.986;2023-06-04T00:31:45;9.30;22.50
10443;DHT22;5269;51.146;16.986;2023-06-04T00:34:12;9.10;97.30
10443;DHT22;5269;51.146;16.986;2023-06-04T00:36:40;9.00;99.90
10443;DHT22;5269;51.146;16.986;2023-06-04T00:39:07;8.90;99.90
10443;DHT22;5269;51.146;16.986;2023-06-04T00:41:35;8.90;99.90
10443;DHT22;5269;51.146;16.986;2023-06-04T00:44:02;9.00;99.90
10443;DHT22;5269;51.146;16.986;2023-06-04T00:46:32;9.00;99.90
10443;DHT22;5269;51.146;16.986;2023-06-04T00:49:01;9.10;99.90
10443;DHT22;5269;51.146;16.986;2023-06-04T00:51:30;9.10;99.90
10443;DHT22;5269;51.146;16.986;2023-06-04T00:53:58;9.10;99.90
10443;DHT22;5269;51.146;16.986;2023-06-04T00:56:28;9.10;99.90
10443;DHT22;5269;51.146;16.986;2023-06-04T00:58:57;9.10;99.90
10443;DHT22;5269;51.146;16.986;2023-06-04T01:01:28;9.20;99.90
10443;DHT22;5269;51.146;16.986;2023-06-04T01:04:01;9.10;99.90
10443;DHT22;5269;51.146;16.986;2023-06-04T01:06:33;9.10;99.90
10443;DHT22;5269;51.146;16.986;2023-06-04T01:09:02;9.00;99.90
10443;DHT22;5269;51.146;16.986;2023-06-04T01:11:31;9.00;99.90
10443;DHT22;5269;51.146;16.986;2023-06-04T01:14:00;9.00;99.90
10443;DHT22;5269;51.146;16.986;2023-06-04T01:16:30;8.90;99.90
10443;DHT22;5269;51.146;16.986;2023-06-04T01:19:02;8.90;99.90
10443;DHT22;5269;51.146;16.986;2023-06-04T01:21:35;8.90;99.90
10443;DHT22;5269;51.146;16.986;2023-06-04T01:24:06;8.90;99.90
10443;DHT22;5269;51.146;16.986;2023-06-04T01:26:34;8.80;99.90
10443;DHT22;5269;51.146;16.986;2023-06-04T01:29:04;8.80;99.90
10443;DHT22;5269;51.146;16.986;2023-06-04T01:31:33;8.80;99.90
10443;DHT22;5269;51.146;16.986;2023-06-04T01:34:01;8.80;99.90
10443;DHT22;5269;51.146;16.986;2023-06-04T01:36:28;8.80;99.90
10443;DHT22;5269;51.146;16.986;2023-06-04T01:38:55;8.80;99.90
10443;DHT22;5269;51.146;16.986;2023-06-04T01:41:23;8.70;99.90
10443;DHT22;5269;51.146;16.986;2023-06-04T01:43:50;8.80;99.90
10443;DHT22;5269;51.146;16.986;2023-06-04T01:46:19;8.70;99.90
10443;DHT22;5269;51.146;16.986;2023-06-04T01:48:46;8.60;99.90
10443;DHT22;5269;51.146;16.986;2023-06-04T01:51:14;8.70;99.90
10443;DHT22;5269;51.146;16.986;2023-06-04T01:53:41;8.60;1.00
10443;DHT22;5269;51.146;16.986;2023-06-04T01:56:08;8.50;1.00
10443;DHT22;5269;51.146;16.986;2023-06-04T01:58:36;8.40;1.00
10443;DHT22;5269;51.146;16.986;2023-06-04T02:01:03;8.40;1.00
10443;DHT22;5269;51.146;16.986;2023-06-04T02:03:32;8.30;1.00
10443;DHT22;5269;51.146;16.986;2023-06-04T02:06:06;8.30;47.30
10443;DHT22;5269;51.146;16.986;2023-06-04T02:08:33;8.30;99.90
10443;DHT22;5269;51.146;16.986;2023-06-04T02:11:01;8.30;99.90
10443;DHT22;5269;51.146;16.986;2023-06-04T02:13:28;8.20;99.90
10443;DHT22;5269;51.146;16.986;2023-06-04T02:15:55;8.20;99.90
10443;DHT22;5269;51.146;16.986;2023-06-04T02:18:22;8.20;99.90
10443;DHT22;5269;51.146;16.986;2023-06-04T02:20:51;8.10;99.90
10443;DHT22;5269;51.146;16.986;2023-06-04T02:23:20;8.00;1.00
10443;DHT22;5269;51.146;16.986;2023-06-04T02:25:47;8.00;1.00
10443;DHT22;5269;51.146;16.986;2023-06-04T02:28:15;7.90;1.00
10443;DHT22;5269;51.146;16.986;2023-06-04T02:30:43;7.90;1.00
10443;DHT22;5269;51.146;16.986;2023-06-04T02:33:10;8.00;1.00
10443;DHT22;5269;51.146;16.986;2023-06-04T02:35:37;8.00;99.90
10443;DHT22;5269;51.146;16.986;2023-06-04T02:38:06;7.90;99.90
10443;DHT22;5269;51.146;16.986;2023-06-04T02:40:33;7.90;99.90
10443;DHT22;5269;51.146;16.986;2023-06-04T02:43:00;7.90;1.00
10443;DHT22;5269;51.146;16.986;2023-06-04T02:45:27;7.90;1.00
10443;DHT22;5269;51.146;16.986;2023-06-04T02:47:54;7.80;1.00
10443;DHT22;5269;51.146;16.986;2023-06-04T02:50:21;7.80;1.00
10443;DHT22;5269;51.146;16.986;2023-06-04T02:52:48;7.70;1.00
10443;DHT22;5269;51.146;16.986;2023-06-04T02:55:17;7.70;1.00
10443;DHT22;5269;51.146;16.986;2023-06-04T02:57:44;7.60;1.00
10443;DHT22;5269;51.146;16.986;2023-06-04T03:00:12;7.70;1.00
10443;DHT22;5269;51.146;16.986;2023-06-04T03:02:41;7.70;1.00
10443;DHT22;5269;51.146;16.986;2023-06-04T03:05:09;7.70;1.00
10443;DHT22;5269;51.146;16.986;2023-06-04T03:07:38;7.60;1.00
10443;DHT22;5269;51.146;16.986;2023-06-04T03:10:07;7.60;1.00
10443;DHT22;5269;51.146;16.986;2023-06-04T03:12:36;7.70;1.00
10443;DHT22;5269;51.146;16.986;2023-06-04T03:15:04;7.90;1.00
10443;DHT22;5269;51.146;16.986;2023-06-04T03:17:31;8.30;1.00
10443;DHT22;5269;51.146;16.986;2023-06-04T03:19:58;8.80;99.90
10443;DHT22;5269;51.146;16.986;2023-06-04T03:22:26;9.00;1.00
10443;DHT22;5269;51.146;16.986;2023-06-04T03:24:53;9.10;1.00
10443;DHT22;5269;51.146;16.986;2023-06-04T03:27:20;9.10;1.00
10443;DHT22;5269;51.146;16.986;2023-06-04T03:29:49;8.90;1.00
10443;DHT22;5269;51.146;16.986;2023-06-04T03:32:16;8.80;1.00
10443;DHT22;5269;51.146;16.986;2023-06-04T03:34:43;8.70;1.00
10443;DHT22;5269;51.146;16.986;2023-06-04T03:37:10;8.60;1.00
10443;DHT22;5269;51.146;16.986;2023-06-04T03:39:38;8.60;39.60
10443;DHT22;5269;51.146;16.986;2023-06-04T03:42:05;8.60;80.20
10443;DHT22;5269;51.146;16.986;2023-06-04T03:44:32;8.60;92.30
10443;DHT22;5269;51.146;16.986;2023-06-04T03:47:00;8.70;99.90
10443;DHT22;5269;51.146;16.986;2023-06-04T03:49:30;8.70;98.90
10443;DHT22;5269;51.146;16.986;2023-06-04T03:51:57;8.80;95.80
10443;DHT22;5269;51.146;16.986;2023-06-04T03:54:26;8.80;73.90
10443;DHT22;5269;51.146;16.986;2023-06-04T03:56:53;8.90;99.90
10443;DHT22;5269;51.146;16.986;2023-06-04T03:59:21;8.90;96.00
10443;DHT22;5269;51.146;16.986;2023-06-04T04:01:48;8.90;99.90
10443;DHT22;5269;51.146;16.986;2023-06-04T04:04:16;9.00;90.50
10443;DHT22;5269;51.146;16.986;2023-06-04T04:06:43;9.10;1.00
10443;DHT22;5269;51.146;16.986;2023-06-04T04:09:10;9.20;1.00
10443;DHT22;5269;51.146;16.986;2023-06-04T04:11:37;9.30;1.00
10443;DHT22;5269;51.146;16.986;2023-06-04T04:14:04;9.40;1.00
10443;DHT22;5269;51.146;16.986;2023-06-04T04:16:31;9.50;1.00
10443;DHT22;5269;51.146;16.986;2023-06-04T04:18:59;9.60;1.00
10443;DHT22;5269;51.146;16.986;2023-06-04T04:21:27;9.70;1.00
10443;DHT22;5269;51.146;16.986;2023-06-04T04:23:54;9.80;1.00
10443;DHT22;5269;51.146;16.986;2023-06-04T04:26:21;9.90;1.00
10443;DHT22;5269;51.146;16.986;2023-06-04T04:28:49;10.00;1.00
10443;DHT22;5269;51.146;16.986;2023-06-04T04:31:17;10.10;1.00
10443;DHT22;5269;51.146;16.986;2023-06-04T04:33:47;10.20;1.00
10443;DHT22;5269;51.146;16.986;2023-06-04T04:36:16;10.20;1.00
10443;DHT22;5269;51.146;16.986;2023-06-04T04:38:45;10.40;1.00
10443;DHT22;5269;51.146;16.986;2023-06-04T04:41:19;10.50;1.00
10443;DHT22;5269;51.146;16.986;2023-06-04T04:43:48;10.60;1.00
10443;DHT22;5269;51.146;16.986;2023-06-04T04:46:15;10.70;99.90
10443;DHT22;5269;51.146;16.986;2023-06-04T04:48:42;10.80;99.90
10443;DHT22;5269;51.146;16.986;2023-06-04T04:51:09;10.90;99.90
10443;DHT22;5269;51.146;16.986;2023-06-04T04:53:36;11.10;99.90
10443;DHT22;5269;51.146;16.986;2023-06-04T04:56:04;11.20;99.90
10443;DHT22;5269;51.146;16.986;2023-06-04T04:58:31;11.30;99.90
10443;DHT22;5269;51.146;16.986;2023-06-04T05:00:58;11.40;99.90
10443;DHT22;5269;51.146;16.986;2023-06-04T05:03:26;11.50;99.90
10443;DHT22;5269;51.146;16.986;2023-06-04T05:05:53;11.60;99.90
10443;DHT22;5269;51.146;16.986;2023-06-04T05:08:20;11.70;89.70
10443;DHT22;5269;51.146;16.986;2023-06-04T05:10:47;11.80;99.90
10443;DHT22;5269;51.146;16.986;2023-06-04T05:13:15;11.90;30.00
10443;DHT22;5269;51.146;16.986;2023-06-04T05:15:43;12.10;2.40
10443;DHT22;5269;51.146;16.986;2023-06-04T05:18:10;12.20;1.00
10443;DHT22;5269;51.146;16.986;2023-06-04T05:23:04;12.40;1.00
10443;DHT22;5269;51.146;16.986;2023-06-04T05:25:31;12.60;1.00
10443;DHT22;5269;51.146;16.986;2023-06-04T05:27:58;12.60;1.00
10443;DHT22;5269;51.146;16.986;2023-06-04T05:30:30;12.70;1.00
10443;DHT22;5269;51.146;16.986;2023-06-04T05:32:57;12.80;1.00
10443;DHT22;5269;51.146;16.986;2023-06-04T05:35:27;12.90;1.00
10443;DHT22;5269;51.146;16.986;2023-06-04T05:37:54;13.00;1.00
10443;DHT22;5269;51.146;16.986;2023-06-04T05:40:21;13.10;1.00
10443;DHT22;5269;51.146;16.986;2023-06-04T05:45:16;13.40;1.00
10443;DHT22;5269;51.146;16.986;2023-06-04T05:47:44;13.50;1.00
10443;DHT22;5269;51.146;16.986;2023-06-04T05:50:11;13.70;1.00
10443;DHT22;5269;51.146;16.986;2023-06-04T05:52:38;13.80;1.00
10443;DHT22;5269;51.146;16.986;2023-06-04T05:55:08;14.00;1.00
10443;DHT22;5269;51.146;16.986;2023-06-04T05:57:35;14.00;1.00
10443;DHT22;5269;51.146;16.986;2023-06-04T06:00:03;14.20;1.00
10443;DHT22;5269;51.146;16.986;2023-06-04T06:02:35;14.30;1.00
10443;DHT22;5269;51.146;16.986;2023-06-04T06:05:05;14.40;1.00
10443;DHT22;5269;51.146;16.986;2023-06-04T06:07:33;14.40;1.00
10443;DHT22;5269;51.146;16.986;2023-06-04T06:10:00;14.60;1.00
10443;DHT22;5269;51.146;16.986;2023-06-04T06:12:27;14.70;1.00
10443;DHT22;5269;51.146;16.986;2023-06-04T06:14:54;14.70;1.00
10443;DHT22;5269;51.146;16.986;2023-06-04T06:17:22;14.80;1.00
10443;DHT22;5269;51.146;16.986;2023-06-04T06:20:01;15.00;1.00
10443;DHT22;5269;51.146;16.986;2023-06-04T06:26:06;15.30;1.00
10443;DHT22;5269;51.146;16.986;2023-06-04T06:32:17;15.30;1.00
10443;DHT22;5269;51.146;16.986;2023-06-04T06:34:49;15.50;1.00
10443;DHT22;5269;51.146;16.986;2023-06-04T06:39:53;15.60;1.00
10443;DHT22;5269;51.146;16.986;2023-06-04T06:42:32;15.70;1.00
10443;DHT22;5269;51.146;16.986;2023-06-04T06:44:59;15.70;1.00
10443;DHT22;5269;51.146;16.986;2023-06-04T06:50:30;16.10;99.90
10443;DHT22;5269;51.146;16.986;2023-06-04T06:53:02;16.30;99.90
10443;DHT22;5269;51.146;16.986;2023-06-04T06:55:36;16.40;99.90
10443;DHT22;5269;51.146;16.986;2023-06-04T06:58:19;16.20;99.90
10443;DHT22;5269;51.146;16.986;2023-06-04T07:01:04;16.40;99.90
10443;DHT22;5269;51.146;16.986;2023-06-04T07:06:07;16.80;99.90
10443;DHT22;5269;51.146;16.986;2023-06-04T07:08:36;16.80;99.90
10443;DHT22;5269;51.146;16.986;2023-06-04T07:11:17;17.00;99.90
10443;DHT22;5269;51.146;16.986;2023-06-04T07:13:45;17.00;99.90
10443;DHT22;5269;51.146;16.986;2023-06-04T07:16:13;16.60;99.90
10443;DHT22;5269;51.146;16.986;2023-06-04T07:18:40;16.40;99.90
10443;DHT22;5269;51.146;16.986;2023-06-04T07:21:07;16.70;99.90
10443;DHT22;5269;51.146;16.986;2023-06-04T07:23:34;16.80;99.90
10443;DHT22;5269;51.146;16.986;2023-06-04T07:26:01;17.00;99.90
10443;DHT22;5269;51.146;16.986;2023-06-04T07:28:31;17.10;99.90
10443;DHT22;5269;51.146;16.986;2023-06-04T07:31:03;17.30;99.90
10443;DHT22;5269;51.146;16.986;2023-06-04T07:33:30;17.50;99.90
10443;DHT22;5269;51.146;16.986;2023-06-04T07:35:58;17.70;99.90
10443;DHT22;5269;51.146;16.986;2023-06-04T07:38:25;17.90;99.90
10443;DHT22;5269;51.146;16.986;2023-06-04T07:40:52;17.80;99.90
10443;DHT22;5269;51.146;16.986;2023-06-04T07:43:36;17.90;99.90
10443;DHT22;5269;51.146;16.986;2023-06-04T07:46:09;17.90;99.90
10443;DHT22;5269;51.146;16.986;2023-06-04T07:48:38;17.90;99.90
10443;DHT22;5269;51.146;16.986;2023-06-04T07:51:15;18.20;99.90
10443;DHT22;5269;51.146;16.986;2023-06-04T07:53:47;18.10;99.90
10443;DHT22;5269;51.146;16.986;2023-06-04T07:56:14;18.20;99.90
10443;DHT22;5269;51.146;16.986;2023-06-04T07:58:41;18.40;99.90
10443;DHT22;5269;51.146;16.986;2023-06-04T08:01:11;18.00;99.90
10443;DHT22;5269;51.146;16.986;2023-06-04T08:03:45;17.80;99.90
10443;DHT22;5269;51.146;16.986;2023-06-04T08:06:20;17.90;99.90
10443;DHT22;5269;51.146;16.986;2023-06-04T08:08:50;18.30;99.90
10443;DHT22;5269;51.146;16.986;2023-06-04T08:11:18;18.50;99.90
10443;DHT22;5269;51.146;16.986;2023-06-04T08:13:46;18.70;99.90
10443;DHT22;5269;51.146;16.986;2023-06-04T08:16:16;18.90;99.90
10443;DHT22;5269;51.146;16.986;2023-06-04T08:18:42;18.90;99.90
10443;DHT22;5269;51.146;16.986;2023-06-04T08:21:13;19.00;99.90
10443;DHT22;5269;51.146;16.986;2023-06-04T08:23:44;18.90;99.90
10443;DHT22;5269;51.146;16.986;2023-06-04T08:26:13;18.90;99.90
10443;DHT22;5269;51.146;16.986;2023-06-04T08:28:43;19.10;99.90
10443;DHT22;5269;51.146;16.986;2023-06-04T08:31:11;18.90;99.90
10443;DHT22;5269;51.146;16.986;2023-06-04T08:33:39;19.10;99.90
10443;DHT22;5269;51.146;16.986;2023-06-04T08:36:07;19.10;99.90
10443;DHT22;5269;51.146;16.986;2023-06-04T08:38:34;19.30;99.90
10443;DHT22;5269;51.146;16.986;2023-06-04T08:41:15;19.40;99.90
10443;DHT22;5269;51.146;16.986;2023-06-04T08:43:43;19.30;99.90
10443;DHT22;5269;51.146;16.986;2023-06-04T08:46:20;19.40;99.90
10443;DHT22;5269;51.146;16.986;2023-06-04T08:48:52;19.40;99.90
10443;DHT22;5269;51.146;16.986;2023-06-04T08:51:21;19.30;99.90
10443;DHT22;5269;51.146;16.986;2023-06-04T08:53:48;19.20;99.90
10443;DHT22;5269;51.146;16.986;2023-06-04T08:56:19;19.30;99.90
10443;DHT22;5269;51.146;16.986;2023-06-04T08:58:47;19.30;99.90
10443;DHT22;5269;51.146;16.986;2023-06-04T09:01:17;19.40;99.90
10443;DHT22;5269;51.146;16.986;2023-06-04T09:03:44;19.50;99.90
10443;DHT22;5269;51.146;16.986;2023-06-04T09:06:13;19.60;99.90
10443;DHT22;5269;51.146;16.986;2023-06-04T09:08:43;19.60;99.90
10443;DHT22;5269;51.146;16.986;2023-06-04T09:11:14;19.70;99.90
10443;DHT22;5269;51.146;16.986;2023-06-04T09:13:43;19.80;99.90
10443;DHT22;5269;51.146;16.986;2023-06-04T09:16:16;20.00;99.90
10443;DHT22;5269;51.146;16.986;2023-06-04T09:18:45;20.10;99.90
10443;DHT22;5269;51.146;16.986;2023-06-04T09:21:13;19.90;99.90
10443;DHT22;5269;51.146;16.986;2023-06-04T09:23:44;19.70;99.90
10443;DHT22;5269;51.146;16.986;2023-06-04T09:26:12;19.80;99.90
10443;DHT22;5269;51.146;16.986;2023-06-04T09:28:40;20.00;99.90
10443;DHT22;5269;51.146;16.986;2023-06-04T09:31:08;20.10;99.90
10443;DHT22;5269;51.146;16.986;2023-06-04T09:33:42;20.20;99.90
10443;DHT22;5269;51.146;16.986;2023-06-04T09:36:10;20.30;99.90
10443;DHT22;5269;51.146;16.986;2023-06-04T09:38:46;20.50;99.90
10443;DHT22;5269;51.146;16.986;2023-06-04T09:41:15;20.60;99.90
10443;DHT22;5269;51.146;16.986;2023-06-04T09:43:42;20.50;99.90
10443;DHT22;5269;51.146;16.986;2023-06-04T09:46:10;20.50;99.90
10443;DHT22;5269;51.146;16.986;2023-06-04T09:48:38;20.50;99.90
10443;DHT22;5269;51.146;16.986;2023-06-04T09:51:09;20.50;99.90
10443;DHT22;5269;51.146;16.986;2023-06-04T09:53:37;20.60;99.90
10443;DHT22;5269;51.146;16.986;2023-06-04T09:56:07;20.50;99.90
10443;DHT22;5269;51.146;16.986;2023-06-04T09:58:37;20.50;99.90
10443;DHT22;5269;51.146;16.986;2023-06-04T10:01:05;20.50;99.90
10443;DHT22;5269;51.146;16.986;2023-06-04T10:03:33;20.50;99.90
10443;DHT22;5269;51.146;16.986;2023-06-04T10:09:12;20.50;99.90
10443;DHT22;5269;51.146;16.986;2023-06-04T10:11:47;20.70;99.90
10443;DHT22;5269;51.146;16.986;2023-06-04T10:14:21;20.90;99.90
10443;DHT22;5269;51.146;16.986;2023-06-04T10:16:51;21.10;99.90
10443;DHT22;5269;51.146;16.986;2023-06-04T10:19:19;21.10;99.90
10443;DHT22;5269;51.146;16.986;2023-06-04T10:21:47;21.10;99.90
10443;DHT22;5269;51.146;16.986;2023-06-04T10:24:16;21.10;99.90
10443;DHT22;5269;51.146;16.986;2023-06-04T10:26:44;20.80;99.90
10443;DHT22;5269;51.146;16.986;2023-06-04T11:14:24;21.70;99.90
10443;DHT22;5269;51.146;16.986;2023-06-04T11:20:16;21.90;99.90
10443;DHT22;5269;51.146;16.986;2023-06-04T11:26:11;21.80;99.90
10443;DHT22;5269;51.146;16.986;2023-06-04T11:32:09;21.80;99.90
10443;DHT22;5269;51.146;16.986;2023-06-04T11:38:02;22.00;99.90
10443;DHT22;5269;51.146;16.986;2023-06-04T11:44:05;22.00;99.90
10443;DHT22;5269;51.146;16.986;2023-06-04T11:50:17;21.90;99.90
10443;DHT22;5269;51.146;16.986;2023-06-04T11:52:55;22.20;99.90
10443;DHT22;5269;51.146;16.986;2023-06-04T11:55:42;22.30;99.90
10443;DHT22;5269;51.146;16.986;2023-06-04T12:01:50;22.50;99.90
10443;DHT22;5269;51.146;16.986;2023-06-04T12:08:13;22.40;99.90
10443;DHT22;5269;51.146;16.986;2023-06-04T12:13:41;22.70;99.90
10443;DHT22;5269;51.146;16.986;2023-06-04T12:16:08;22.70;99.90
10443;DHT22;5269;51.146;16.986;2023-06-04T12:19:18;22.70;99.90
10443;DHT22;5269;51.146;16.986;2023-06-04T12:27:20;22.50;99.90
10443;DHT22;5269;51.146;16.986;2023-06-04T12:30:08;22.40;99.90
10443;DHT22;5269;51.146;16.986;2023-06-04T12:32:43;22.10;99.90
10443;DHT22;5269;51.146;16.986;2023-06-04T12:35:13;21.80;99.90
10443;DHT22;5269;51.146;16.986;2023-06-04T12:37:41;22.00;99.90
10443;DHT22;5269;51.146;16.986;2023-06-04T12:40:10;22.40;99.90
10443;DHT22;5269;51.146;16.986;2023-06-04T12:42:39;22.70;99.90
10443;DHT22;5269;51.146;16.986;2023-06-04T12:45:10;22.70;99.90
10443;DHT22;5269;51.146;16.986;2023-06-04T12:47:39;22.70;99.90
10443;DHT22;5269;51.146;16.986;2023-06-04T12:50:08;22.80;99.90
10443;DHT22;5269;51.146;16.986;2023-06-04T12:52:35;22.80;99.90
10443;DHT22;5269;51.146;16.986;2023-06-04T12:55:03;22.90;99.90
10443;DHT22;5269;51.146;16.986;2023-06-04T12:57:30;22.80;99.90
10443;DHT22;5269;51.146;16.986;2023-06-04T12:59:58;22.90;99.90
10443;DHT22;5269;51.146;16.986;2023-06-04T13:02:25;23.00;99.90
10443;DHT22;5269;51.146;16.986;2023-06-04T13:04:52;23.10;99.90
10443;DHT22;5269;51.146;16.986;2023-06-04T13:07:22;23.10;99.90
10443;DHT22;5269;51.146;16.986;2023-06-04T13:09:49;23.10;99.90
10443;DHT22;5269;51.146;16.986;2023-06-04T13:12:16;22.70;99.90
10443;DHT22;5269;51.146;16.986;2023-06-04T13:14:43;22.20;99.90
10443;DHT22;5269;51.146;16.986;2023-06-04T13:17:11;22.60;99.90
10443;DHT22;5269;51.146;16.986;2023-06-04T13:19:39;22.90;99.90
10443;DHT22;5269;51.146;16.986;2023-06-04T13:22:06;23.20;99.90
10443;DHT22;5269;51.146;16.986;2023-06-04T13:24:34;23.30;99.90
10443;DHT22;5269;51.146;16.986;2023-06-04T13:27:01;23.60;99.90
10443;DHT22;5269;51.146;16.986;2023-06-04T13:29:28;23.70;99.90
10443;DHT22;5269;51.146;16.986;2023-06-04T13:31:59;23.80;99.90
10443;DHT22;5269;51.146;16.986;2023-06-04T13:34:27;23.90;99.90
10443;DHT22;5269;51.146;16.986;2023-06-04T13:36:56;23.60;99.90
10443;DHT22;5269;51.146;16.986;2023-06-04T13:39:23;23.70;99.90
10443;DHT22;5269;51.146;16.986;2023-06-04T13:41:50;23.90;99.90
10443;DHT22;5269;51.146;16.986;2023-06-04T13:44:17;23.90;99.90
10443;DHT22;5269;51.146;16.986;2023-06-04T13:46:44;23.80;99.90
10443;DHT22;5269;51.146;16.986;2023-06-04T13:49:11;23.80;99.90
10443;DHT22;5269;51.146;16.986;2023-06-04T13:51:39;23.80;99.90
10443;DHT22;5269;51.146;16.986;2023-06-04T13:54:07;23.50;99.90
10443;DHT22;5269;51.146;16.986;2023-06-04T13:56:34;23.90;99.90
10443;DHT22;5269;51.146;16.986;2023-06-04T13:59:01;24.00;99.90
10443;DHT22;5269;51.146;16.986;2023-06-04T14:01:28;24.00;99.90
10443;DHT22;5269;51.146;16.986;2023-06-04T14:03:55;24.00;99.90
10443;DHT22;5269;51.146;16.986;2023-06-04T14:09:00;24.40;99.90
10443;DHT22;5269;51.146;16.986;2023-06-04T14:11:27;24.40;99.90
10443;DHT22;5269;51.146;16.986;2023-06-04T14:13:54;24.50;99.90
10443;DHT22;5269;51.146;16.986;2023-06-04T14:16:24;24.40;99.90
10443;DHT22;5269;51.146;16.986;2023-06-04T14:18:51;24.20;99.90
10443;DHT22;5269;51.146;16.986;2023-06-04T14:21:18;24.70;99.90
10443;DHT22;5269;51.146;16.986;2023-06-04T14:23:46;25.00;99.90
10443;DHT22;5269;51.146;16.986;2023-06-04T14:26:17;25.10;99.90
10443;DHT22;5269;51.146;16.986;2023-06-04T14:28:44;24.90;99.90
10443;DHT22;5269;51.146;16.986;2023-06-04T14:31:11;24.70;99.90
10443;DHT22;5269;51.146;16.986;2023-06-04T14:33:38;24.60;99.90
10443;DHT22;5269;51.146;16.986;2023-06-04T14:36:05;24.90;99.90
10443;DHT22;5269;51.146;16.986;2023-06-04T14:38:32;25.20;99.90
10443;DHT22;5269;51.146;16.986;2023-06-04T14:40:59;25.60;99.90
10443;DHT22;5269;51.146;16.986;2023-06-04T14:43:28;25.30;99.90
10443;DHT22;5269;51.146;16.986;2023-06-04T14:45:55;25.20;99.90
10443;DHT22;5269;51.146;16.986;2023-06-04T14:48:23;25.40;99.90
10443;DHT22;5269;51.146;16.986;2023-06-04T14:50:50;25.60;99.90
10443;DHT22;5269;51.146;16.986;2023-06-04T14:53:19;25.90;99.90
10443;DHT22;5269;51.146;16.986;2023-06-04T14:55:46;26.10;99.90
10443;DHT22;5269;51.146;16.986;2023-06-04T14:58:13;26.00;99.90
10443;DHT22;5269;51.146;16.986;2023-06-04T15:00:42;25.60;99.90
10443;DHT22;5269;51.146;16.986;2023-06-04T15:03:08;25.50;99.90
10443;DHT22;5269;51.146;16.986;2023-06-04T15:05:36;25.60;99.90
10443;DHT22;5269;51.146;16.986;2023-06-04T15:08:03;25.90;99.90
10443;DHT22;5269;51.146;16.986;2023-06-04T15:10:32;26.00;99.90
10443;DHT22;5269;51.146;16.986;2023-06-04T15:12:59;26.00;99.90
10443;DHT22;5269;51.146;16.986;2023-06-04T15:15:26;26.20;99.90
10443;DHT22;5269;51.146;16.986;2023-06-04T15:17:55;26.30;99.90
10443;DHT22;5269;51.146;16.986;2023-06-04T15:20:22;26.30;99.90
10443;DHT22;5269;51.146;16.986;2023-06-04T15:22:50;26.10;99.90
10443;DHT22;5269;51.146;16.986;2023-06-04T15:25:17;26.20;99.90
10443;DHT22;5269;51.146;16.986;2023-06-04T15:27:44;26.40;99.90
10443;DHT22;5269;51.146;16.986;2023-06-04T15:30:11;26.80;99.90
10443;DHT22;5269;51.146;16.986;2023-06-04T15:32:38;27.10;99.90
10443;DHT22;5269;51.146;16.986;2023-06-04T15:35:08;27.10;99.90
10443;DHT22;5269;51.146;16.986;2023-06-04T15:37:35;27.20;99.90
10443;DHT22;5269;51.146;16.986;2023-06-04T15:40:05;27.40;99.90
10443;DHT22;5269;51.146;16.986;2023-06-04T15:42:34;27.60;99.90
10443;DHT22;5269;51.146;16.986;2023-06-04T15:45:01;27.70;99.90
10443;DHT22;5269;51.146;16.986;2023-06-04T15:47:28;27.90;99.90
10443;DHT22;5269;51.146;16.986;2023-06-04T15:49:55;27.90;99.90
10443;DHT22;5269;51.146;16.986;2023-06-04T15:52:24;27.40;99.90
10443;DHT22;5269;51.146;16.986;2023-06-04T15:54:51;26.50;99.90
10443;DHT22;5269;51.146;16.986;2023-06-04T15:57:18;26.40;99.90
10443;DHT22;5269;51.146;16.986;2023-06-04T15:59:44;26.70;99.90
10443;DHT22;5269;51.146;16.986;2023-06-04T16:02:11;27.50;99.90
10443;DHT22;5269;51.146;16.986;2023-06-04T16:04:38;27.50;99.90
10443;DHT22;5269;51.146;16.986;2023-06-04T16:07:05;27.90;99.90
10443;DHT22;5269;51.146;16.986;2023-06-04T16:09:33;28.40;99.90
10443;DHT22;5269;51.146;16.986;2023-06-04T16:12:00;28.70;99.90
10443;DHT22;5269;51.146;16.986;2023-06-04T16:14:28;29.00;99.90
10443;DHT22;5269;51.146;16.986;2023-06-04T16:16:55;29.00;99.90
10443;DHT22;5269;51.146;16.986;2023-06-04T16:19:22;29.20;99.90
10443;DHT22;5269;51.146;16.986;2023-06-04T16:21:49;29.20;99.90
10443;DHT22;5269;51.146;16.986;2023-06-04T16:24:15;29.00;99.90
10443;DHT22;5269;51.146;16.986;2023-06-04T16:26:44;28.70;99.90
10443;DHT22;5269;51.146;16.986;2023-06-04T16:29:11;28.60;99.90
10443;DHT22;5269;51.146;16.986;2023-06-04T16:31:38;28.70;99.90
10443;DHT22;5269;51.146;16.986;2023-06-04T16:34:05;29.00;99.90
10443;DHT22;5269;51.146;16.986;2023-06-04T16:36:35;29.20;99.90
10443;DHT22;5269;51.146;16.986;2023-06-04T16:39:02;28.90;99.90
10443;DHT22;5269;51.146;16.986;2023-06-04T16:41:30;29.00;99.90
10443;DHT22;5269;51.146;16.986;2023-06-04T16:43:58;29.10;99.90
10443;DHT22;5269;51.146;16.986;2023-06-04T16:46:25;29.10;99.90
10443;DHT22;5269;51.146;16.986;2023-06-04T16:48:52;29.00;99.90
10443;DHT22;5269;51.146;16.986;2023-06-04T16:51:19;29.20;99.90
10443;DHT22;5269;51.146;16.986;2023-06-04T16:53:46;29.20;99.90
10443;DHT22;5269;51.146;16.986;2023-06-04T16:56:14;29.10;99.90
10443;DHT22;5269;51.146;16.986;2023-06-04T16:58:41;29.10;99.90
10443;DHT22;5269;51.146;16.986;2023-06-04T17:01:11;29.40;99.90
10443;DHT22;5269;51.146;16.986;2023-06-04T17:03:38;29.20;99.90
10443;DHT22;5269;51.146;16.986;2023-06-04T17:06:05;29.40;99.90
10443;DHT22;5269;51.146;16.986;2023-06-04T17:08:32;29.30;99.90
10443;DHT22;5269;51.146;16.986;2023-06-04T17:10:59;29.30;99.90
10443;DHT22;5269;51.146;16.986;2023-06-04T17:13:26;28.90;99.90
10443;DHT22;5269;51.146;16.986;2023-06-04T17:15:53;28.70;99.90
10443;DHT22;5269;51.146;16.986;2023-06-04T17:18:21;29.20;99.90
10443;DHT22;5269;51.146;16.986;2023-06-04T17:20:48;29.40;99.90
10443;DHT22;5269;51.146;16.986;2023-06-04T17:23:21;28.90;99.90
10443;DHT22;5269;51.146;16.986;2023-06-04T17:25:49;28.70;99.90
10443;DHT22;5269;51.146;16.986;2023-06-04T17:28:16;28.60;99.90
10443;DHT22;5269;51.146;16.986;2023-06-04T17:30:43;28.40;99.90
10443;DHT22;5269;51.146;16.986;2023-06-04T17:33:11;28.40;99.90
10443;DHT22;5269;51.146;16.986;2023-06-04T17:35:39;28.30;99.90
10443;DHT22;5269;51.146;16.986;2023-06-04T17:38:09;28.30;99.90